METAR Data
IDs: Format: Raw Decoded Include TAF

Data at: 1854 UTC 02 Oct 2022

METAR for:KFNL (Fort Collins/Lovelan, CO, US)
Text:KFNL 021756Z 17007KT 10SM FEW110 14/11 A3019 RMK AO2 SLP193 T01440106 10150 20078 58005
Temperature: 14.4°C ( 58°F)
Dewpoint: 10.6°C ( 51°F) [RH = 78%]
Pressure (altimeter):30.19 inches Hg (1022.4 mb) [Sea level pressure: 1019.3 mb]
Winds:from the S (170 degrees) at 8 MPH (7 knots; 3.6 m/s)
Visibility:10 or more sm (16+ km)
Ceiling:at least 12,000 feet AGL
Clouds: few clouds at 11000 feet AGL